sensor_id;sensor_type;location;lat;lon;timestamp;temperature;humidity
13332;DHT22;6735;51.456;12.626;2023-03-17T00:00:03;2.90;71.20
13332;DHT22;6735;51.456;12.626;2023-03-17T00:02:29;2.90;71.10
13332;DHT22;6735;51.456;12.626;2023-03-17T00:04:55;2.90;71.10
13332;DHT22;6735;51.456;12.626;2023-03-17T00:07:20;2.90;71.00
13332;DHT22;6735;51.456;12.626;2023-03-17T00:09:46;2.90;70.80
13332;DHT22;6735;51.456;12.626;2023-03-17T00:12:12;2.90;70.60
13332;DHT22;6735;51.456;12.626;2023-03-17T00:14:38;2.90;70.60
13332;DHT22;6735;51.456;12.626;2023-03-17T00:17:03;2.90;70.60
13332;DHT22;6735;51.456;12.626;2023-03-17T00:19:32;2.90;70.40
13332;DHT22;6735;51.456;12.626;2023-03-17T00:21:59;2.90;70.40
13332;DHT22;6735;51.456;12.626;2023-03-17T00:24:25;2.90;70.40
13332;DHT22;6735;51.456;12.626;2023-03-17T00:26:50;2.80;70.60
13332;DHT22;6735;51.456;12.626;2023-03-17T00:29:16;2.90;70.50
13332;DHT22;6735;51.456;12.626;2023-03-17T00:31:43;2.80;70.90
13332;DHT22;6735;51.456;12.626;2023-03-17T00:34:15;2.80;70.80
13332;DHT22;6735;51.456;12.626;2023-03-17T00:36:45;2.80;70.80
13332;DHT22;6735;51.456;12.626;2023-03-17T00:39:15;2.70;70.90
13332;DHT22;6735;51.456;12.626;2023-03-17T00:41:41;2.70;70.80
13332;DHT22;6735;51.456;12.626;2023-03-17T00:44:07;2.70;71.10
13332;DHT22;6735;51.456;12.626;2023-03-17T00:46:32;2.60;71.10
13332;DHT22;6735;51.456;12.626;2023-03-17T00:49:12;2.60;71.20
13332;DHT22;6735;51.456;12.626;2023-03-17T00:51:39;2.60;71.10
13332;DHT22;6735;51.456;12.626;2023-03-17T00:54:05;2.60;71.30
13332;DHT22;6735;51.456;12.626;2023-03-17T00:56:31;2.50;71.30
13332;DHT22;6735;51.456;12.626;2023-03-17T00:58:57;2.50;71.50
13332;DHT22;6735;51.456;12.626;2023-03-17T01:01:22;2.50;71.40
13332;DHT22;6735;51.456;12.626;2023-03-17T01:03:48;2.50;71.60
13332;DHT22;6735;51.456;12.626;2023-03-17T01:06:14;2.50;71.50
13332;DHT22;6735;51.456;12.626;2023-03-17T01:08:41;2.50;71.40
13332;DHT22;6735;51.456;12.626;2023-03-17T01:11:15;2.50;71.20
13332;DHT22;6735;51.456;12.626;2023-03-17T01:13:43;2.50;71.00
13332;DHT22;6735;51.456;12.626;2023-03-17T01:16:09;2.50;71.10
13332;DHT22;6735;51.456;12.626;2023-03-17T01:18:35;2.60;70.60
13332;DHT22;6735;51.456;12.626;2023-03-17T01:21:01;2.60;70.40
13332;DHT22;6735;51.456;12.626;2023-03-17T01:23:26;2.60;70.30
13332;DHT22;6735;51.456;12.626;2023-03-17T01:25:52;2.60;70.40
13332;DHT22;6735;51.456;12.626;2023-03-17T01:28:18;2.60;70.20
13332;DHT22;6735;51.456;12.626;2023-03-17T01:30:45;2.70;70.20
13332;DHT22;6735;51.456;12.626;2023-03-17T01:33:12;2.70;70.10
13332;DHT22;6735;51.456;12.626;2023-03-17T01:35:38;2.70;69.80
13332;DHT22;6735;51.456;12.626;2023-03-17T01:38:05;2.70;69.70
13332;DHT22;6735;51.456;12.626;2023-03-17T01:40:33;2.70;69.80
13332;DHT22;6735;51.456;12.626;2023-03-17T01:48:40;2.80;69.60
13332;DHT22;6735;51.456;12.626;2023-03-17T01:51:09;2.80;69.60
13332;DHT22;6735;51.456;12.626;2023-03-17T01:53:36;2.80;69.40
13332;DHT22;6735;51.456;12.626;2023-03-17T01:56:03;2.80;69.40
13332;DHT22;6735;51.456;12.626;2023-03-17T01:58:29;2.80;69.40
13332;DHT22;6735;51.456;12.626;2023-03-17T02:00:55;2.90;69.00
13332;DHT22;6735;51.456;12.626;2023-03-17T02:03:21;2.90;69.10
13332;DHT22;6735;51.456;12.626;2023-03-17T02:05:50;2.90;69.30
13332;DHT22;6735;51.456;12.626;2023-03-17T02:08:16;2.90;69.30
13332;DHT22;6735;51.456;12.626;2023-03-17T02:10:43;2.90;69.10
13332;DHT22;6735;51.456;12.626;2023-03-17T02:13:10;2.90;69.10
13332;DHT22;6735;51.456;12.626;2023-03-17T02:15:45;2.90;69.20
13332;DHT22;6735;51.456;12.626;2023-03-17T02:18:12;2.90;69.30
13332;DHT22;6735;51.456;12.626;2023-03-17T02:23:05;2.90;69.40
13332;DHT22;6735;51.456;12.626;2023-03-17T02:25:33;2.80;69.60
13332;DHT22;6735;51.456;12.626;2023-03-17T02:28:05;2.90;69.80
13332;DHT22;6735;51.456;12.626;2023-03-17T02:30:34;2.90;69.70
13332;DHT22;6735;51.456;12.626;2023-03-17T02:33:00;2.80;69.80
13332;DHT22;6735;51.456;12.626;2023-03-17T02:35:26;2.80;69.90
13332;DHT22;6735;51.456;12.626;2023-03-17T02:37:52;2.80;70.00
13332;DHT22;6735;51.456;12.626;2023-03-17T02:40:18;2.80;70.10
13332;DHT22;6735;51.456;12.626;2023-03-17T02:42:43;2.80;70.10
13332;DHT22;6735;51.456;12.626;2023-03-17T02:45:10;2.80;70.40
13332;DHT22;6735;51.456;12.626;2023-03-17T02:47:36;2.80;70.30
13332;DHT22;6735;51.456;12.626;2023-03-17T02:50:03;2.80;70.30
13332;DHT22;6735;51.456;12.626;2023-03-17T02:52:29;2.70;70.20
13332;DHT22;6735;51.456;12.626;2023-03-17T02:54:55;2.70;70.40
13332;DHT22;6735;51.456;12.626;2023-03-17T02:57:20;2.70;70.50
13332;DHT22;6735;51.456;12.626;2023-03-17T02:59:46;2.70;70.60
13332;DHT22;6735;51.456;12.626;2023-03-17T03:02:11;2.70;70.50
13332;DHT22;6735;51.456;12.626;2023-03-17T03:04:37;2.70;71.00
13332;DHT22;6735;51.456;12.626;2023-03-17T03:07:03;2.60;71.10
13332;DHT22;6735;51.456;12.626;2023-03-17T03:09:29;2.70;70.90
13332;DHT22;6735;51.456;12.626;2023-03-17T03:11:54;2.60;70.90
13332;DHT22;6735;51.456;12.626;2023-03-17T03:14:20;2.60;70.90
13332;DHT22;6735;51.456;12.626;2023-03-17T03:16:46;2.60;71.10
13332;DHT22;6735;51.456;12.626;2023-03-17T03:19:11;2.60;70.80
13332;DHT22;6735;51.456;12.626;2023-03-17T03:21:37;2.60;71.50
13332;DHT22;6735;51.456;12.626;2023-03-17T03:24:03;2.60;71.40
13332;DHT22;6735;51.456;12.626;2023-03-17T03:26:28;2.60;71.30
13332;DHT22;6735;51.456;12.626;2023-03-17T03:28:54;2.60;71.70
13332;DHT22;6735;51.456;12.626;2023-03-17T03:31:21;2.60;71.80
13332;DHT22;6735;51.456;12.626;2023-03-17T03:33:47;2.60;71.30
13332;DHT22;6735;51.456;12.626;2023-03-17T03:36:13;2.60;71.10
13332;DHT22;6735;51.456;12.626;2023-03-17T03:38:39;2.70;70.90
13332;DHT22;6735;51.456;12.626;2023-03-17T03:41:06;2.70;70.80
13332;DHT22;6735;51.456;12.626;2023-03-17T03:43:31;2.70;71.00
13332;DHT22;6735;51.456;12.626;2023-03-17T03:45:57;2.70;70.70
13332;DHT22;6735;51.456;12.626;2023-03-17T03:48:22;2.70;70.70
13332;DHT22;6735;51.456;12.626;2023-03-17T03:50:48;2.70;70.70
13332;DHT22;6735;51.456;12.626;2023-03-17T03:53:14;2.70;70.80
13332;DHT22;6735;51.456;12.626;2023-03-17T03:55:40;2.70;70.90
13332;DHT22;6735;51.456;12.626;2023-03-17T03:58:06;2.70;70.80
13332;DHT22;6735;51.456;12.626;2023-03-17T04:00:32;2.70;70.70
13332;DHT22;6735;51.456;12.626;2023-03-17T04:02:57;2.70;70.90
13332;DHT22;6735;51.456;12.626;2023-03-17T04:05:23;2.70;70.70
13332;DHT22;6735;51.456;12.626;2023-03-17T04:07:48;2.70;70.70
13332;DHT22;6735;51.456;12.626;2023-03-17T04:10:15;2.70;70.30
13332;DHT22;6735;51.456;12.626;2023-03-17T04:12:41;2.80;70.60
13332;DHT22;6735;51.456;12.626;2023-03-17T04:15:08;2.80;70.30
13332;DHT22;6735;51.456;12.626;2023-03-17T04:17:34;2.80;70.30
13332;DHT22;6735;51.456;12.626;2023-03-17T04:20:00;2.80;70.20
13332;DHT22;6735;51.456;12.626;2023-03-17T04:22:26;2.80;69.90
13332;DHT22;6735;51.456;12.626;2023-03-17T04:24:52;2.80;70.80
13332;DHT22;6735;51.456;12.626;2023-03-17T04:27:17;2.80;69.90
13332;DHT22;6735;51.456;12.626;2023-03-17T04:29:43;2.80;70.00
13332;DHT22;6735;51.456;12.626;2023-03-17T04:32:11;2.80;69.50
13332;DHT22;6735;51.456;12.626;2023-03-17T04:34:37;2.80;69.30
13332;DHT22;6735;51.456;12.626;2023-03-17T04:37:03;2.80;69.30
13332;DHT22;6735;51.456;12.626;2023-03-17T04:39:29;2.80;69.10
13332;DHT22;6735;51.456;12.626;2023-03-17T04:41:54;2.80;69.20
13332;DHT22;6735;51.456;12.626;2023-03-17T04:44:20;2.80;69.10
13332;DHT22;6735;51.456;12.626;2023-03-17T04:46:45;2.80;69.00
13332;DHT22;6735;51.456;12.626;2023-03-17T04:49:11;2.80;68.40
13332;DHT22;6735;51.456;12.626;2023-03-17T04:51:37;2.80;68.70
13332;DHT22;6735;51.456;12.626;2023-03-17T04:54:02;2.90;68.60
13332;DHT22;6735;51.456;12.626;2023-03-17T04:56:28;2.90;69.10
13332;DHT22;6735;51.456;12.626;2023-03-17T04:58:54;3.00;69.00
13332;DHT22;6735;51.456;12.626;2023-03-17T05:01:20;3.00;67.70
13332;DHT22;6735;51.456;12.626;2023-03-17T05:03:46;3.00;67.30
13332;DHT22;6735;51.456;12.626;2023-03-17T05:06:11;3.10;69.50
13332;DHT22;6735;51.456;12.626;2023-03-17T05:08:37;3.10;68.00
13332;DHT22;6735;51.456;12.626;2023-03-17T05:11:03;3.00;68.00
13332;DHT22;6735;51.456;12.626;2023-03-17T05:13:29;3.00;67.90
13332;DHT22;6735;51.456;12.626;2023-03-17T05:15:55;3.00;68.10
13332;DHT22;6735;51.456;12.626;2023-03-17T05:18:23;3.00;67.90
13332;DHT22;6735;51.456;12.626;2023-03-17T05:20:49;2.90;68.00
13332;DHT22;6735;51.456;12.626;2023-03-17T05:23:14;2.90;68.10
13332;DHT22;6735;51.456;12.626;2023-03-17T05:25:40;2.90;68.00
13332;DHT22;6735;51.456;12.626;2023-03-17T05:28:06;2.90;68.00
13332;DHT22;6735;51.456;12.626;2023-03-17T05:30:32;2.90;67.90
13332;DHT22;6735;51.456;12.626;2023-03-17T05:32:57;2.90;67.90
13332;DHT22;6735;51.456;12.626;2023-03-17T05:35:23;2.90;67.80
13332;DHT22;6735;51.456;12.626;2023-03-17T05:37:49;3.00;67.30
13332;DHT22;6735;51.456;12.626;2023-03-17T05:40:15;3.00;67.40
13332;DHT22;6735;51.456;12.626;2023-03-17T05:42:40;3.10;66.70
13332;DHT22;6735;51.456;12.626;2023-03-17T05:45:07;3.20;66.40
13332;DHT22;6735;51.456;12.626;2023-03-17T05:47:33;3.20;66.30
13332;DHT22;6735;51.456;12.626;2023-03-17T05:49:59;3.30;66.40
13332;DHT22;6735;51.456;12.626;2023-03-17T05:52:26;3.30;66.20
13332;DHT22;6735;51.456;12.626;2023-03-17T05:54:52;3.40;65.90
13332;DHT22;6735;51.456;12.626;2023-03-17T05:57:19;3.50;65.50
13332;DHT22;6735;51.456;12.626;2023-03-17T05:59:44;3.60;65.10
13332;DHT22;6735;51.456;12.626;2023-03-17T06:02:10;3.60;65.20
13332;DHT22;6735;51.456;12.626;2023-03-17T06:04:37;3.70;64.80
13332;DHT22;6735;51.456;12.626;2023-03-17T06:07:03;3.70;64.50
13332;DHT22;6735;51.456;12.626;2023-03-17T06:09:29;3.80;64.50
13332;DHT22;6735;51.456;12.626;2023-03-17T06:11:55;3.80;64.10
13332;DHT22;6735;51.456;12.626;2023-03-17T06:14:20;3.90;64.10
13332;DHT22;6735;51.456;12.626;2023-03-17T06:16:46;4.00;63.70
13332;DHT22;6735;51.456;12.626;2023-03-17T06:19:11;4.10;63.70
13332;DHT22;6735;51.456;12.626;2023-03-17T06:21:37;4.20;63.40
13332;DHT22;6735;51.456;12.626;2023-03-17T06:24:02;4.30;62.90
13332;DHT22;6735;51.456;12.626;2023-03-17T06:26:28;4.40;62.90
13332;DHT22;6735;51.456;12.626;2023-03-17T06:28:54;4.50;62.70
13332;DHT22;6735;51.456;12.626;2023-03-17T06:31:20;4.60;62.40
13332;DHT22;6735;51.456;12.626;2023-03-17T06:33:46;4.60;62.20
13332;DHT22;6735;51.456;12.626;2023-03-17T06:36:12;4.70;61.60
13332;DHT22;6735;51.456;12.626;2023-03-17T06:38:38;4.80;61.50
13332;DHT22;6735;51.456;12.626;2023-03-17T06:41:03;4.90;61.00
13332;DHT22;6735;51.456;12.626;2023-03-17T06:43:29;5.00;61.10
13332;DHT22;6735;51.456;12.626;2023-03-17T06:45:55;5.00;60.40
13332;DHT22;6735;51.456;12.626;2023-03-17T06:48:21;5.10;60.50
13332;DHT22;6735;51.456;12.626;2023-03-17T06:50:47;5.20;60.00
13332;DHT22;6735;51.456;12.626;2023-03-17T06:53:13;5.20;60.00
13332;DHT22;6735;51.456;12.626;2023-03-17T06:55:38;5.30;59.70
13332;DHT22;6735;51.456;12.626;2023-03-17T06:58:04;5.40;59.60
13332;DHT22;6735;51.456;12.626;2023-03-17T07:00:30;5.40;59.00
13332;DHT22;6735;51.456;12.626;2023-03-17T07:02:55;5.50;59.60
13332;DHT22;6735;51.456;12.626;2023-03-17T07:05:21;5.60;59.40
13332;DHT22;6735;51.456;12.626;2023-03-17T07:07:47;5.70;58.80
13332;DHT22;6735;51.456;12.626;2023-03-17T07:10:13;5.80;58.50
13332;DHT22;6735;51.456;12.626;2023-03-17T07:12:40;5.90;58.20
13332;DHT22;6735;51.456;12.626;2023-03-17T07:15:06;5.90;57.80
13332;DHT22;6735;51.456;12.626;2023-03-17T07:17:31;6.00;57.40
13332;DHT22;6735;51.456;12.626;2023-03-17T07:19:57;6.10;57.00
13332;DHT22;6735;51.456;12.626;2023-03-17T07:22:23;6.20;57.50
13332;DHT22;6735;51.456;12.626;2023-03-17T07:24:48;6.30;55.70
13332;DHT22;6735;51.456;12.626;2023-03-17T07:27:15;6.40;56.00
13332;DHT22;6735;51.456;12.626;2023-03-17T07:29:40;6.60;55.00
13332;DHT22;6735;51.456;12.626;2023-03-17T07:32:06;6.80;54.60
13332;DHT22;6735;51.456;12.626;2023-03-17T07:34:33;7.00;54.70
13332;DHT22;6735;51.456;12.626;2023-03-17T07:37:00;7.20;53.10
13332;DHT22;6735;51.456;12.626;2023-03-17T07:39:26;7.50;52.20
13332;DHT22;6735;51.456;12.626;2023-03-17T07:41:51;8.10;50.40
13332;DHT22;6735;51.456;12.626;2023-03-17T07:44:20;8.60;48.80
13332;DHT22;6735;51.456;12.626;2023-03-17T07:46:47;8.90;47.70
13332;DHT22;6735;51.456;12.626;2023-03-17T07:49:12;9.10;48.10
13332;DHT22;6735;51.456;12.626;2023-03-17T07:51:38;9.30;47.90
13332;DHT22;6735;51.456;12.626;2023-03-17T07:54:10;9.40;45.30
13332;DHT22;6735;51.456;12.626;2023-03-17T07:56:36;9.50;47.20
13332;DHT22;6735;51.456;12.626;2023-03-17T07:59:03;9.40;46.10
13332;DHT22;6735;51.456;12.626;2023-03-17T08:01:28;9.70;46.70
13332;DHT22;6735;51.456;12.626;2023-03-17T08:03:54;9.80;45.90
13332;DHT22;6735;51.456;12.626;2023-03-17T08:06:21;9.90;46.00
13332;DHT22;6735;51.456;12.626;2023-03-17T08:08:47;10.10;46.30
13332;DHT22;6735;51.456;12.626;2023-03-17T08:11:12;10.10;46.10
13332;DHT22;6735;51.456;12.626;2023-03-17T08:13:38;10.10;45.50
13332;DHT22;6735;51.456;12.626;2023-03-17T08:16:04;10.30;46.10
13332;DHT22;6735;51.456;12.626;2023-03-17T08:18:31;10.40;44.30
13332;DHT22;6735;51.456;12.626;2023-03-17T08:20:56;10.40;44.00
13332;DHT22;6735;51.456;12.626;2023-03-17T08:23:22;10.50;45.00
13332;DHT22;6735;51.456;12.626;2023-03-17T08:25:49;10.60;44.80
13332;DHT22;6735;51.456;12.626;2023-03-17T08:28:15;10.80;44.50
13332;DHT22;6735;51.456;12.626;2023-03-17T08:30:41;11.10;44.10
13332;DHT22;6735;51.456;12.626;2023-03-17T08:33:07;11.20;43.60
13332;DHT22;6735;51.456;12.626;2023-03-17T08:35:34;11.20;43.50
13332;DHT22;6735;51.456;12.626;2023-03-17T08:38:00;11.50;42.90
13332;DHT22;6735;51.456;12.626;2023-03-17T08:40:25;11.50;42.90
13332;DHT22;6735;51.456;12.626;2023-03-17T08:42:51;11.70;42.30
13332;DHT22;6735;51.456;12.626;2023-03-17T08:45:17;12.10;41.90
13332;DHT22;6735;51.456;12.626;2023-03-17T08:47:43;12.10;41.20
13332;DHT22;6735;51.456;12.626;2023-03-17T08:50:14;12.20;42.10
13332;DHT22;6735;51.456;12.626;2023-03-17T08:52:40;12.20;41.90
13332;DHT22;6735;51.456;12.626;2023-03-17T08:55:06;12.20;41.80
13332;DHT22;6735;51.456;12.626;2023-03-17T08:57:34;12.00;41.80
13332;DHT22;6735;51.456;12.626;2023-03-17T08:59:59;12.10;41.80
13332;DHT22;6735;51.456;12.626;2023-03-17T09:02:25;12.30;42.10
13332;DHT22;6735;51.456;12.626;2023-03-17T09:04:51;12.20;41.40
13332;DHT22;6735;51.456;12.626;2023-03-17T09:07:17;12.30;40.80
13332;DHT22;6735;51.456;12.626;2023-03-17T09:09:42;12.30;40.50
13332;DHT22;6735;51.456;12.626;2023-03-17T09:12:09;12.30;39.80
13332;DHT22;6735;51.456;12.626;2023-03-17T09:14:35;12.50;40.90
13332;DHT22;6735;51.456;12.626;2023-03-17T09:17:01;12.60;40.70
13332;DHT22;6735;51.456;12.626;2023-03-17T09:19:26;13.00;40.00
13332;DHT22;6735;51.456;12.626;2023-03-17T09:21:52;13.20;40.00
13332;DHT22;6735;51.456;12.626;2023-03-17T09:24:18;13.50;40.30
13332;DHT22;6735;51.456;12.626;2023-03-17T09:26:44;13.60;39.90
13332;DHT22;6735;51.456;12.626;2023-03-17T09:29:09;13.60;39.00
13332;DHT22;6735;51.456;12.626;2023-03-17T09:31:35;13.40;39.00
13332;DHT22;6735;51.456;12.626;2023-03-17T09:34:02;13.50;39.20
13332;DHT22;6735;51.456;12.626;2023-03-17T09:36:29;13.70;39.30
13332;DHT22;6735;51.456;12.626;2023-03-17T09:38:55;14.10;39.00
13332;DHT22;6735;51.456;12.626;2023-03-17T09:41:24;14.20;38.20
13332;DHT22;6735;51.456;12.626;2023-03-17T09:46:57;14.00;38.00
13332;DHT22;6735;51.456;12.626;2023-03-17T09:49:44;14.10;36.90
13332;DHT22;6735;51.456;12.626;2023-03-17T09:52:13;14.00;36.90
13332;DHT22;6735;51.456;12.626;2023-03-17T09:54:40;13.70;36.90
13332;DHT22;6735;51.456;12.626;2023-03-17T09:57:13;13.90;37.90
13332;DHT22;6735;51.456;12.626;2023-03-17T09:59:50;14.00;37.10
13332;DHT22;6735;51.456;12.626;2023-03-17T10:02:24;14.20;37.60
13332;DHT22;6735;51.456;12.626;2023-03-17T10:04:51;14.20;37.50
13332;DHT22;6735;51.456;12.626;2023-03-17T10:07:23;14.30;37.30
13332;DHT22;6735;51.456;12.626;2023-03-17T10:10:00;14.20;36.90
13332;DHT22;6735;51.456;12.626;2023-03-17T10:15:53;14.40;34.20
13332;DHT22;6735;51.456;12.626;2023-03-17T10:18:24;14.60;35.20
13332;DHT22;6735;51.456;12.626;2023-03-17T10:20:58;14.60;34.90
13332;DHT22;6735;51.456;12.626;2023-03-17T10:23:28;14.40;33.40
13332;DHT22;6735;51.456;12.626;2023-03-17T10:25:56;14.30;35.00
13332;DHT22;6735;51.456;12.626;2023-03-17T10:28:27;14.30;34.30
13332;DHT22;6735;51.456;12.626;2023-03-17T10:31:00;14.20;34.60
13332;DHT22;6735;51.456;12.626;2023-03-17T10:33:26;14.30;34.30
13332;DHT22;6735;51.456;12.626;2023-03-17T10:35:51;14.40;34.50
13332;DHT22;6735;51.456;12.626;2023-03-17T10:38:19;14.40;34.00
13332;DHT22;6735;51.456;12.626;2023-03-17T10:40:56;14.50;34.30
13332;DHT22;6735;51.456;12.626;2023-03-17T10:43:28;14.60;34.50
13332;DHT22;6735;51.456;12.626;2023-03-17T10:46:02;14.80;34.40
13332;DHT22;6735;51.456;12.626;2023-03-17T10:48:30;14.80;34.30
13332;DHT22;6735;51.456;12.626;2023-03-17T10:50:59;14.90;34.50
13332;DHT22;6735;51.456;12.626;2023-03-17T10:53:36;15.00;33.90
13332;DHT22;6735;51.456;12.626;2023-03-17T10:56:17;15.00;34.10
13332;DHT22;6735;51.456;12.626;2023-03-17T10:58:48;15.10;34.30
13332;DHT22;6735;51.456;12.626;2023-03-17T11:01:39;15.20;33.80
13332;DHT22;6735;51.456;12.626;2023-03-17T11:04:25;15.20;31.80
13332;DHT22;6735;51.456;12.626;2023-03-17T11:06:57;15.20;33.40
13332;DHT22;6735;51.456;12.626;2023-03-17T11:09:24;15.40;32.60
13332;DHT22;6735;51.456;12.626;2023-03-17T11:12:01;15.50;33.10
13332;DHT22;6735;51.456;12.626;2023-03-17T11:14:27;15.60;32.90
13332;DHT22;6735;51.456;12.626;2023-03-17T11:17:18;15.60;33.00
13332;DHT22;6735;51.456;12.626;2023-03-17T11:19:54;15.60;32.60
13332;DHT22;6735;51.456;12.626;2023-03-17T11:22:36;15.70;31.70
13332;DHT22;6735;51.456;12.626;2023-03-17T11:25:30;15.60;31.50
13332;DHT22;6735;51.456;12.626;2023-03-17T11:28:21;15.60;32.00
13332;DHT22;6735;51.456;12.626;2023-03-17T11:31:08;15.70;32.10
13332;DHT22;6735;51.456;12.626;2023-03-17T11:36:50;15.90;32.20
13332;DHT22;6735;51.456;12.626;2023-03-17T11:39:24;16.00;32.50
13332;DHT22;6735;51.456;12.626;2023-03-17T11:47:35;16.10;31.90
13332;DHT22;6735;51.456;12.626;2023-03-17T11:52:51;16.00;30.90
13332;DHT22;6735;51.456;12.626;2023-03-17T11:55:35;16.00;31.30
13332;DHT22;6735;51.456;12.626;2023-03-17T11:58:09;16.00;30.80
13332;DHT22;6735;51.456;12.626;2023-03-17T12:00:43;16.00;31.50
13332;DHT22;6735;51.456;12.626;2023-03-17T12:03:41;15.90;31.80
13332;DHT22;6735;51.456;12.626;2023-03-17T12:06:30;16.00;31.50
13332;DHT22;6735;51.456;12.626;2023-03-17T12:11:35;16.10;31.70
13332;DHT22;6735;51.456;12.626;2023-03-17T12:14:05;16.10;31.80
13332;DHT22;6735;51.456;12.626;2023-03-17T12:16:38;16.20;32.00
13332;DHT22;6735;51.456;12.626;2023-03-17T12:21:41;16.40;32.00
13332;DHT22;6735;51.456;12.626;2023-03-17T12:24:20;16.40;31.70
13332;DHT22;6735;51.456;12.626;2023-03-17T12:29:24;16.40;31.80
13332;DHT22;6735;51.456;12.626;2023-03-17T12:31:57;16.40;31.80
13332;DHT22;6735;51.456;12.626;2023-03-17T12:37:06;16.40;32.40
13332;DHT22;6735;51.456;12.626;2023-03-17T12:39:33;16.40;32.50
13332;DHT22;6735;51.456;12.626;2023-03-17T12:44:59;16.40;32.30
13332;DHT22;6735;51.456;12.626;2023-03-17T12:48:02;16.30;31.70
13332;DHT22;6735;51.456;12.626;2023-03-17T12:50:39;16.40;32.50
13332;DHT22;6735;51.456;12.626;2023-03-17T12:53:27;16.50;32.50
13332;DHT22;6735;51.456;12.626;2023-03-17T12:56:19;16.60;32.50
13332;DHT22;6735;51.456;12.626;2023-03-17T12:58:44;16.60;32.50
13332;DHT22;6735;51.456;12.626;2023-03-17T13:01:14;16.60;32.40
13332;DHT22;6735;51.456;12.626;2023-03-17T13:03:57;16.60;32.40
13332;DHT22;6735;51.456;12.626;2023-03-17T13:06:23;16.70;31.80
13332;DHT22;6735;51.456;12.626;2023-03-17T13:08:51;16.60;31.20
13332;DHT22;6735;51.456;12.626;2023-03-17T13:14:22;16.80;31.80
13332;DHT22;6735;51.456;12.626;2023-03-17T13:16:49;16.80;31.90
13332;DHT22;6735;51.456;12.626;2023-03-17T13:24:45;16.80;31.00
13332;DHT22;6735;51.456;12.626;2023-03-17T13:29:57;16.80;31.50
13332;DHT22;6735;51.456;12.626;2023-03-17T13:34:53;16.80;30.90
13332;DHT22;6735;51.456;12.626;2023-03-17T13:37:29;16.90;31.40
13332;DHT22;6735;51.456;12.626;2023-03-17T13:40:24;16.90;31.50
13332;DHT22;6735;51.456;12.626;2023-03-17T13:45:48;17.00;30.80
13332;DHT22;6735;51.456;12.626;2023-03-17T13:51:16;17.10;30.20
13332;DHT22;6735;51.456;12.626;2023-03-17T13:53:53;17.10;30.50
13332;DHT22;6735;51.456;12.626;2023-03-17T14:01:27;17.00;31.60
13332;DHT22;6735;51.456;12.626;2023-03-17T14:03:55;17.00;31.70
13332;DHT22;6735;51.456;12.626;2023-03-17T14:06:26;17.00;32.30
13332;DHT22;6735;51.456;12.626;2023-03-17T14:11:46;17.10;32.80
13332;DHT22;6735;51.456;12.626;2023-03-17T14:14:18;17.10;33.10
13332;DHT22;6735;51.456;12.626;2023-03-17T14:16:51;17.20;33.40
13332;DHT22;6735;51.456;12.626;2023-03-17T14:19:23;17.20;33.50
13332;DHT22;6735;51.456;12.626;2023-03-17T14:21:51;17.10;33.60
13332;DHT22;6735;51.456;12.626;2023-03-17T14:26:47;17.20;33.40
13332;DHT22;6735;51.456;12.626;2023-03-17T14:29:15;17.10;33.60
13332;DHT22;6735;51.456;12.626;2023-03-17T14:31:46;17.10;33.70
13332;DHT22;6735;51.456;12.626;2023-03-17T14:34:13;16.90;34.00
13332;DHT22;6735;51.456;12.626;2023-03-17T14:36:40;16.90;34.20
13332;DHT22;6735;51.456;12.626;2023-03-17T14:39:06;17.00;35.70
13332;DHT22;6735;51.456;12.626;2023-03-17T14:41:33;17.00;36.20
13332;DHT22;6735;51.456;12.626;2023-03-17T14:43:59;17.00;35.80
13332;DHT22;6735;51.456;12.626;2023-03-17T14:46:33;17.00;36.00
13332;DHT22;6735;51.456;12.626;2023-03-17T14:49:13;16.90;35.40
13332;DHT22;6735;51.456;12.626;2023-03-17T14:51:40;16.90;35.40
13332;DHT22;6735;51.456;12.626;2023-03-17T14:54:14;16.80;34.70
13332;DHT22;6735;51.456;12.626;2023-03-17T14:56:41;16.70;34.80
13332;DHT22;6735;51.456;12.626;2023-03-17T14:59:17;16.70;35.00
13332;DHT22;6735;51.456;12.626;2023-03-17T15:01:46;16.70;35.20
13332;DHT22;6735;51.456;12.626;2023-03-17T15:09:19;16.50;35.20
13332;DHT22;6735;51.456;12.626;2023-03-17T15:11:48;16.40;35.30
13332;DHT22;6735;51.456;12.626;2023-03-17T15:14:18;16.40;35.50
13332;DHT22;6735;51.456;12.626;2023-03-17T15:16:52;16.40;35.70
13332;DHT22;6735;51.456;12.626;2023-03-17T15:21:46;16.20;36.30
13332;DHT22;6735;51.456;12.626;2023-03-17T15:24:24;16.20;36.80
13332;DHT22;6735;51.456;12.626;2023-03-17T15:26:57;16.20;36.80
13332;DHT22;6735;51.456;12.626;2023-03-17T15:29:22;16.10;37.10
13332;DHT22;6735;51.456;12.626;2023-03-17T15:31:48;16.10;37.50
13332;DHT22;6735;51.456;12.626;2023-03-17T15:34:13;16.00;37.50
13332;DHT22;6735;51.456;12.626;2023-03-17T15:36:39;16.00;37.90
13332;DHT22;6735;51.456;12.626;2023-03-17T15:39:08;15.90;37.90
13332;DHT22;6735;51.456;12.626;2023-03-17T15:41:33;15.90;38.10
13332;DHT22;6735;51.456;12.626;2023-03-17T15:43:59;15.80;38.30
13332;DHT22;6735;51.456;12.626;2023-03-17T15:46:27;15.70;38.40
13332;DHT22;6735;51.456;12.626;2023-03-17T15:48:55;15.70;38.90
13332;DHT22;6735;51.456;12.626;2023-03-17T15:51:20;15.60;39.30
13332;DHT22;6735;51.456;12.626;2023-03-17T15:53:46;15.60;39.40
13332;DHT22;6735;51.456;12.626;2023-03-17T15:56:15;15.50;39.40
13332;DHT22;6735;51.456;12.626;2023-03-17T15:58:44;15.40;39.70
13332;DHT22;6735;51.456;12.626;2023-03-17T16:01:11;15.30;39.80
13332;DHT22;6735;51.456;12.626;2023-03-17T16:03:37;15.30;39.90
13332;DHT22;6735;51.456;12.626;2023-03-17T16:06:05;15.20;40.00
13332;DHT22;6735;51.456;12.626;2023-03-17T16:08:31;15.10;40.30
13332;DHT22;6735;51.456;12.626;2023-03-17T16:10:58;15.10;40.20
13332;DHT22;6735;51.456;12.626;2023-03-17T16:13:23;15.00;40.30
13332;DHT22;6735;51.456;12.626;2023-03-17T16:15:54;14.90;40.70
13332;DHT22;6735;51.456;12.626;2023-03-17T16:18:29;14.80;40.90
13332;DHT22;6735;51.456;12.626;2023-03-17T16:20:56;14.70;41.00
13332;DHT22;6735;51.456;12.626;2023-03-17T16:23:23;14.70;41.00
13332;DHT22;6735;51.456;12.626;2023-03-17T16:25:51;14.60;41.30
13332;DHT22;6735;51.456;12.626;2023-03-17T16:28:22;14.60;41.40
13332;DHT22;6735;51.456;12.626;2023-03-17T16:30:49;14.50;41.80
13332;DHT22;6735;51.456;12.626;2023-03-17T16:35:44;14.30;42.40
13332;DHT22;6735;51.456;12.626;2023-03-17T16:38:11;14.20;42.40
13332;DHT22;6735;51.456;12.626;2023-03-17T16:40:38;14.20;42.50
13332;DHT22;6735;51.456;12.626;2023-03-17T16:43:05;14.10;42.60
13332;DHT22;6735;51.456;12.626;2023-03-17T16:45:36;14.10;42.90
13332;DHT22;6735;51.456;12.626;2023-03-17T16:48:03;13.90;43.10
13332;DHT22;6735;51.456;12.626;2023-03-17T16:50:30;13.90;43.30
13332;DHT22;6735;51.456;12.626;2023-03-17T16:52:57;13.80;43.40
13332;DHT22;6735;51.456;12.626;2023-03-17T16:55:26;13.70;44.00
13332;DHT22;6735;51.456;12.626;2023-03-17T16:57:55;13.70;44.30
13332;DHT22;6735;51.456;12.626;2023-03-17T17:00:24;13.60;44.50
13332;DHT22;6735;51.456;12.626;2023-03-17T17:02:50;13.50;44.70